createdAt,value
2019-01-15T00:02:58.400Z,68.44
2019-01-15T00:13:00.209Z,68.80
2019-01-15T00:23:02.117Z,67.86
2019-01-15T00:33:03.823Z,67.15
2019-01-15T00:43:05.832Z,66.96
2019-01-15T00:53:07.570Z,66.33
2019-01-15T01:03:09.344Z,66.20
2019-01-15T01:13:11.149Z,66.25
2019-01-15T01:23:12.651Z,65.16
2019-01-15T01:33:14.351Z,65.48
2019-01-15T01:43:16.160Z,65.82
2019-01-15T01:53:19.126Z,64.81
2019-01-15T02:03:20.742Z,64.13
2019-01-15T02:13:22.532Z,62.51
2019-01-15T02:23:24.106Z,64.28
2019-01-15T02:33:26.629Z,63.72
2019-01-15T02:43:28.438Z,64.48
2019-01-15T02:53:33.417Z,67.83
2019-01-15T03:03:34.918Z,66.05
2019-01-15T03:13:36.720Z,64.62
2019-01-15T03:23:38.222Z,64.02
2019-01-15T03:33:40.857Z,65.24
2019-01-15T03:43:42.658Z,65.95
2019-01-15T03:53:44.268Z,66.89
2019-01-15T04:03:45.857Z,65.98
2019-01-15T04:13:47.781Z,65.51
2019-01-15T04:23:49.369Z,66.19
2019-01-15T04:33:50.871Z,65.65
2019-01-15T04:43:52.577Z,65.48
2019-01-15T04:53:54.280Z,65.13
2019-01-15T05:03:55.774Z,66.10
2019-01-15T05:13:57.759Z,66.66
2019-01-15T05:23:59.264Z,67.61
2019-01-15T05:34:00.811Z,66.49
2019-01-15T05:44:03.477Z,65.28
2019-01-15T05:54:05.937Z,64.62
2019-01-15T06:04:07.944Z,64.88
2019-01-15T06:14:09.649Z,64.74
2019-01-15T06:24:11.154Z,65.07
2019-01-15T06:34:12.649Z,65.11
2019-01-15T06:44:14.355Z,69.99
2019-01-15T06:54:19.438Z,68.24
2019-01-15T07:04:20.932Z,70.52
2019-01-15T07:14:22.757Z,73.62
2019-01-15T07:24:25.277Z,73.38
2019-01-15T07:34:26.767Z,72.76
2019-01-15T07:44:28.471Z,70.39
2019-01-15T07:54:33.861Z,70.33
2019-01-15T08:04:35.357Z,72.30
2019-01-15T08:14:36.998Z,73.54
2019-01-15T08:24:38.573Z,77.50
2019-01-15T08:34:40.068Z,79.15
2019-01-15T08:44:42.278Z,76.46
2019-01-15T08:54:47.073Z,73.20
2019-01-15T09:04:48.569Z,68.93
2019-01-15T09:14:50.257Z,69.28
2019-01-15T09:24:51.767Z,68.60
2019-01-15T09:34:53.362Z,67.57
2019-01-15T09:44:55.489Z,66.87
2019-01-15T09:55:00.558Z,66.96
2019-01-15T10:05:04.245Z,67.72
2019-01-15T10:15:10.909Z,67.77
2019-01-15T10:25:15.576Z,67.87
2019-01-15T10:35:25.642Z,69.60
2019-01-15T10:45:27.414Z,67.83
2019-01-15T10:55:30.989Z,69.60
2019-01-15T11:05:32.765Z,73.65
2019-01-15T11:15:34.530Z,75.60
2019-01-15T11:25:36.174Z,78.12
2019-01-15T11:35:37.877Z,80.35
2019-01-15T11:45:39.685Z,81.74
2019-01-15T11:55:41.386Z,84.05
2019-01-15T12:05:47.806Z,86.14
2019-01-15T12:16:00.299Z,84.48
2019-01-15T12:26:06.878Z,81.61
2019-01-15T12:36:16.157Z,81.66
2019-01-15T12:46:18.282Z,81.79
2019-01-15T12:56:21.948Z,84.17
2019-01-15T13:24:23.840Z,90.54
2019-01-15T13:34:44.049Z,91.10
2019-01-15T13:44:45.545Z,91.68
2019-01-15T13:54:47.040Z,92.24
2019-01-15T14:05:13.942Z,100.00
2019-01-15T14:15:17.891Z,100.00
2019-01-15T14:25:40.693Z,100.00
2019-01-15T14:50:55.711Z,100.00
2019-01-15T15:01:15.849Z,100.00
2019-01-15T16:56:49.577Z,100.00
2019-01-15T17:06:56.808Z,100.00
2019-01-15T18:05:20.990Z,100.00
